createdAt,value
2023-01-19T00:00:49.837Z,23.90
2023-01-19T00:03:22.275Z,24.00
2023-01-19T00:05:54.579Z,29.98
2023-01-19T00:08:27.103Z,27.77
2023-01-19T00:10:59.628Z,29.35
2023-01-19T00:13:32.222Z,26.08
2023-01-19T00:16:04.421Z,28.17
2023-01-19T00:18:36.546Z,29.42
2023-01-19T00:21:08.600Z,25.98
2023-01-19T00:23:41.257Z,22.65
2023-01-19T00:26:17.259Z,26.80
2023-01-19T00:28:50.407Z,23.85
2023-01-19T00:31:25.246Z,26.83
2023-01-19T00:33:57.326Z,26.25
2023-01-19T00:36:29.455Z,25.92
2023-01-19T00:39:01.628Z,28.50
2023-01-19T00:41:56.427Z,26.65
2023-01-19T00:44:29.127Z,34.15
2023-01-19T00:47:04.042Z,24.75
2023-01-19T00:49:37.303Z,30.65
2023-01-19T00:52:09.425Z,21.30
2023-01-19T00:54:41.445Z,34.50
2023-01-19T00:57:13.516Z,23.13
2023-01-19T00:59:45.931Z,33.55
2023-01-19T01:02:18.205Z,25.00
2023-01-19T01:04:54.984Z,24.08
2023-01-19T01:07:27.013Z,27.42
2023-01-19T01:09:58.983Z,31.13
2023-01-19T01:12:30.947Z,28.02
2023-01-19T01:15:04.745Z,30.77
2023-01-19T01:17:38.196Z,26.17
2023-01-19T01:20:11.556Z,27.98
2023-01-19T01:22:48.906Z,32.25
2023-01-19T01:25:23.555Z,28.58
2023-01-19T01:27:55.666Z,27.20
2023-01-19T01:30:27.849Z,30.30
2023-01-19T01:33:00.165Z,37.47
2023-01-19T01:35:34.100Z,29.15
2023-01-19T01:38:06.599Z,32.60
2023-01-19T01:40:42.206Z,30.80
2023-01-19T01:43:17.870Z,34.90
2023-01-19T01:45:49.899Z,30.25
2023-01-19T01:48:28.222Z,35.65
2023-01-19T01:51:25.791Z,28.20
2023-01-19T01:54:30.417Z,30.08
2023-01-19T01:57:08.700Z,33.13
2023-01-19T01:59:45.797Z,35.45
2023-01-19T02:02:45.910Z,32.88
2023-01-19T02:05:34.939Z,29.20
2023-01-19T02:08:44.463Z,28.50
2023-01-19T02:11:35.696Z,29.90
2023-01-19T02:14:08.181Z,32.03
2023-01-19T02:16:40.404Z,33.08
2023-01-19T02:19:19.535Z,26.33
2023-01-19T02:22:10.038Z,31.48
2023-01-19T02:24:43.096Z,38.08
2023-01-19T02:27:15.918Z,31.50
2023-01-19T02:29:48.272Z,32.10
2023-01-19T02:32:23.653Z,29.30
2023-01-19T02:34:56.003Z,31.23
2023-01-19T02:37:34.300Z,29.73
2023-01-19T02:40:12.531Z,29.25
2023-01-19T02:42:50.366Z,27.10
2023-01-19T02:45:23.584Z,32.58
2023-01-19T02:47:55.609Z,29.65
2023-01-19T02:50:49.556Z,31.15
2023-01-19T02:53:35.860Z,31.98
2023-01-19T02:56:44.544Z,31.50
2023-01-19T02:59:48.798Z,26.42
2023-01-19T03:02:55.248Z,28.05
2023-01-19T03:05:37.881Z,32.08
2023-01-19T03:08:18.969Z,25.48
2023-01-19T03:11:12.027Z,26.00
2023-01-19T03:14:01.646Z,27.73
2023-01-19T03:16:43.178Z,26.98
2023-01-19T03:19:20.581Z,36.97
2023-01-19T03:22:04.404Z,35.75
2023-01-19T03:24:43.374Z,37.33
2023-01-19T03:27:30.831Z,32.35
2023-01-19T03:30:14.064Z,33.50
2023-01-19T03:32:54.852Z,28.42
2023-01-19T03:35:32.303Z,30.55
2023-01-19T03:38:12.667Z,34.30
2023-01-19T03:40:47.712Z,35.55
2023-01-19T03:43:20.993Z,27.63
2023-01-19T03:45:53.924Z,29.30
2023-01-19T03:48:26.609Z,32.28
2023-01-19T03:51:02.371Z,29.42
2023-01-19T03:53:34.781Z,26.88
2023-01-19T03:56:31.907Z,32.70
2023-01-19T03:59:06.006Z,25.25
2023-01-19T04:01:38.111Z,28.65
2023-01-19T04:04:10.141Z,28.65
2023-01-19T04:06:43.738Z,31.02
2023-01-19T04:09:15.735Z,25.10
2023-01-19T04:11:47.815Z,26.88
2023-01-19T04:14:19.935Z,32.90
2023-01-19T04:16:52.211Z,29.17
2023-01-19T04:19:24.978Z,25.40
2023-01-19T04:21:57.051Z,25.65
2023-01-19T04:24:29.326Z,31.63
2023-01-19T04:27:01.336Z,26.73
2023-01-19T04:29:33.356Z,24.90
2023-01-19T04:32:05.795Z,25.38
2023-01-19T04:34:37.761Z,27.88
2023-01-19T04:37:10.453Z,25.55
2023-01-19T04:39:42.407Z,35.13
2023-01-19T04:42:17.623Z,29.45
2023-01-19T04:44:49.647Z,28.65
2023-01-19T04:47:21.688Z,30.48
2023-01-19T04:49:53.641Z,29.83
2023-01-19T04:52:26.267Z,24.90
2023-01-19T04:54:58.240Z,31.63
2023-01-19T04:57:33.682Z,28.00
2023-01-19T05:00:07.589Z,33.38
2023-01-19T05:02:42.347Z,32.38
2023-01-19T05:05:17.349Z,35.40
2023-01-19T05:07:49.330Z,31.67
2023-01-19T05:10:21.471Z,35.50
2023-01-19T05:12:53.418Z,36.25
2023-01-19T05:15:25.512Z,33.08
2023-01-19T05:17:58.208Z,40.08
2023-01-19T05:20:30.328Z,41.60
2023-01-19T05:23:02.777Z,39.50
2023-01-19T05:25:35.134Z,45.80
2023-01-19T05:28:07.895Z,46.75
2023-01-19T05:30:40.034Z,41.28
2023-01-19T05:33:12.111Z,39.15
2023-01-19T05:35:44.073Z,39.92
2023-01-19T05:38:20.813Z,41.08
2023-01-19T05:40:58.948Z,42.78
2023-01-19T05:43:30.963Z,45.13
2023-01-19T05:46:06.558Z,39.20
2023-01-19T05:48:38.610Z,53.67
2023-01-19T05:51:10.906Z,45.03
2023-01-19T05:53:43.709Z,41.15
2023-01-19T05:56:15.720Z,38.15
2023-01-19T05:58:47.728Z,50.03
2023-01-19T06:01:19.827Z,46.20
2023-01-19T06:03:52.134Z,41.67
2023-01-19T06:06:24.146Z,49.75
2023-01-19T06:08:56.209Z,42.75
2023-01-19T06:11:28.889Z,39.42
2023-01-19T06:14:01.047Z,46.95
2023-01-19T06:16:33.107Z,43.10
2023-01-19T06:19:05.237Z,42.88
2023-01-19T06:21:37.958Z,36.85
2023-01-19T06:24:10.235Z,41.08
2023-01-19T06:26:44.953Z,45.45
2023-01-19T06:29:18.822Z,42.70
2023-01-19T06:31:50.972Z,37.03
2023-01-19T06:34:27.187Z,40.70
2023-01-19T06:36:59.580Z,41.15
2023-01-19T06:39:31.678Z,39.33
2023-01-19T06:42:03.945Z,33.42
2023-01-19T06:44:38.804Z,34.38
2023-01-19T06:47:14.993Z,36.38
2023-01-19T06:49:48.295Z,33.90
2023-01-19T06:52:20.754Z,40.05
2023-01-19T06:54:52.754Z,33.35
2023-01-19T06:57:26.010Z,37.10
2023-01-19T07:00:00.797Z,35.40
2023-01-19T07:02:33.245Z,37.58
2023-01-19T07:05:07.070Z,34.65
2023-01-19T07:07:39.797Z,29.13
2023-01-19T07:10:16.495Z,33.25
2023-01-19T07:12:48.961Z,33.47
2023-01-19T07:15:23.109Z,29.48
2023-01-19T07:18:00.156Z,32.85
2023-01-19T07:20:32.324Z,34.47
2023-01-19T07:23:04.720Z,34.75
2023-01-19T07:25:36.785Z,36.45
2023-01-19T07:28:09.315Z,35.08
2023-01-19T07:30:46.360Z,30.15
2023-01-19T07:33:18.522Z,35.20
2023-01-19T07:35:51.080Z,34.70
2023-01-19T07:38:23.152Z,32.75
2023-01-19T07:41:05.372Z,33.22
2023-01-19T07:43:37.402Z,33.92
2023-01-19T07:46:10.144Z,33.38
2023-01-19T07:48:44.500Z,35.03
2023-01-19T07:51:19.636Z,34.97
2023-01-19T07:53:51.908Z,35.08
2023-01-19T07:56:24.861Z,48.65
2023-01-19T07:58:56.935Z,35.38
2023-01-19T08:01:29.868Z,35.83
2023-01-19T08:04:02.017Z,34.13
2023-01-19T08:06:37.641Z,32.50
2023-01-19T08:09:10.127Z,31.42
2023-01-19T08:11:42.745Z,27.92
2023-01-19T08:14:14.753Z,39.80
2023-01-19T08:16:46.869Z,40.40
2023-01-19T08:19:19.571Z,31.08
2023-01-19T08:21:52.363Z,37.15
2023-01-19T08:24:28.641Z,35.08
2023-01-19T08:27:04.155Z,31.42
2023-01-19T08:29:36.540Z,27.58
2023-01-19T08:32:08.749Z,31.52
2023-01-19T08:34:40.875Z,31.88
2023-01-19T08:37:12.886Z,31.20
2023-01-19T08:39:44.876Z,29.65
2023-01-19T08:42:16.863Z,37.53
2023-01-19T08:44:57.539Z,30.17
2023-01-19T08:47:30.144Z,32.20
2023-01-19T08:50:02.337Z,30.60
2023-01-19T08:52:34.323Z,31.75
2023-01-19T08:55:07.623Z,33.00
2023-01-19T08:57:40.044Z,33.22
2023-01-19T09:00:13.187Z,30.33
2023-01-19T09:02:45.454Z,32.47
2023-01-19T09:05:18.353Z,29.42
2023-01-19T09:07:51.831Z,34.90
2023-01-19T09:10:23.814Z,32.58
2023-01-19T09:12:55.815Z,30.13
2023-01-19T09:15:28.329Z,34.90
2023-01-19T09:18:01.173Z,30.70
2023-01-19T09:20:36.187Z,31.88
2023-01-19T09:23:13.197Z,31.67
2023-01-19T09:25:47.370Z,25.48
2023-01-19T09:28:19.349Z,30.70
2023-01-19T09:30:52.242Z,32.15
2023-01-19T09:33:24.926Z,30.60
2023-01-19T09:52:37.446Z,25.98
2023-01-19T09:55:26.458Z,29.42
2023-01-19T09:57:59.282Z,26.33
2023-01-19T10:00:33.628Z,32.65
2023-01-19T10:03:14.448Z,29.67
2023-01-19T10:06:03.817Z,30.35
2023-01-19T10:08:57.585Z,30.37
2023-01-19T10:11:51.859Z,35.67
2023-01-19T10:14:40.549Z,37.05
2023-01-19T10:17:32.483Z,33.00
2023-01-19T10:20:15.383Z,33.95
2023-01-19T10:22:49.969Z,36.83
2023-01-19T10:25:27.110Z,35.92
2023-01-19T10:28:01.428Z,28.60
2023-01-19T10:30:33.911Z,28.65
2023-01-19T10:33:06.464Z,33.65
2023-01-19T10:35:38.570Z,25.63
2023-01-19T10:38:15.584Z,27.30
2023-01-19T10:41:46.236Z,35.20
2023-01-19T10:44:30.246Z,33.78
2023-01-19T10:47:05.201Z,38.22
2023-01-19T10:49:44.955Z,42.60
2023-01-19T10:52:36.387Z,50.22
2023-01-19T10:55:40.666Z,46.13
2023-01-19T10:58:35.160Z,41.65
2023-01-19T11:01:24.872Z,40.47
2023-01-19T11:04:05.793Z,43.08
2023-01-19T11:06:40.423Z,38.92
2023-01-19T11:09:25.948Z,43.33
2023-01-19T11:12:00.094Z,40.28
2023-01-19T11:14:32.404Z,46.97
2023-01-19T11:17:04.472Z,38.05
2023-01-19T11:19:36.527Z,39.10
2023-01-19T11:22:24.265Z,41.20
2023-01-19T11:25:02.108Z,31.85
2023-01-19T11:27:37.771Z,31.10
2023-01-19T11:30:26.038Z,38.20
2023-01-19T11:32:58.233Z,33.22
2023-01-19T11:35:41.685Z,28.15
2023-01-19T11:38:19.843Z,30.02
2023-01-19T11:40:58.665Z,28.80
2023-01-19T11:43:47.468Z,25.77
2023-01-19T11:46:24.191Z,18.67
2023-01-19T11:49:05.891Z,21.05
2023-01-19T11:52:05.329Z,27.52
2023-01-19T11:54:56.405Z,15.82
2023-01-19T11:57:28.446Z,15.13
2023-01-19T12:00:05.333Z,26.45
2023-01-19T12:02:48.096Z,22.08
2023-01-19T12:05:21.644Z,15.30
2023-01-19T12:07:56.775Z,14.77
2023-01-19T12:10:35.325Z,15.57
2023-01-19T12:13:18.750Z,22.77
2023-01-19T12:16:00.830Z,21.73
2023-01-19T12:18:48.444Z,10.93
2023-01-19T12:21:21.237Z,4.85
2023-01-19T12:24:16.543Z,14.60
2023-01-19T12:26:59.527Z,8.73
2023-01-19T12:29:35.208Z,21.58
2023-01-19T12:32:17.706Z,17.65
2023-01-19T12:35:29.704Z,18.00
2023-01-19T12:38:37.118Z,21.17
2023-01-19T12:41:37.453Z,23.98
2023-01-19T12:46:50.243Z,20.60
2023-01-19T12:50:34.399Z,11.63
2023-01-19T12:53:19.740Z,14.77
2023-01-19T12:56:01.254Z,12.25
2023-01-19T12:58:51.574Z,18.17
2023-01-19T13:06:08.211Z,16.88
2023-01-19T13:09:01.255Z,14.52
2023-01-19T13:11:53.745Z,16.70
2023-01-19T13:14:38.757Z,15.43
2023-01-19T13:21:04.916Z,7.53
2023-01-19T13:23:51.565Z,17.73
2023-01-19T13:26:39.370Z,10.30
2023-01-19T13:29:16.099Z,26.67
2023-01-19T13:31:49.181Z,13.70
2023-01-19T13:34:25.551Z,27.95
2023-01-19T13:38:02.197Z,18.40
2023-01-19T13:40:40.874Z,15.93
2023-01-19T13:43:28.454Z,14.60
2023-01-19T13:46:01.041Z,23.25
2023-01-19T13:48:33.569Z,22.92
2023-01-19T13:51:10.624Z,13.70
2023-01-19T13:54:02.324Z,13.10
2023-01-19T13:56:34.325Z,9.65
2023-01-19T13:59:13.984Z,21.45
2023-01-19T14:01:47.037Z,15.05
2023-01-19T14:04:35.820Z,6.25
2023-01-19T14:07:26.157Z,11.48
2023-01-19T14:10:05.782Z,12.35
2023-01-19T14:12:48.121Z,9.13
2023-01-19T14:15:28.173Z,20.38
2023-01-19T14:19:31.460Z,12.35
2023-01-19T14:22:05.518Z,14.68
2023-01-19T14:24:38.843Z,9.50
2023-01-19T14:28:32.753Z,14.77
2023-01-19T14:31:27.622Z,19.25
2023-01-19T14:33:59.683Z,20.38
2023-01-19T14:36:40.041Z,16.33
2023-01-19T14:39:23.503Z,15.63
2023-01-19T14:42:00.080Z,13.70
2023-01-19T14:44:36.722Z,7.18
2023-01-19T14:47:41.678Z,7.25
2023-01-19T14:50:35.415Z,10.48
2023-01-19T14:53:17.366Z,14.82
2023-01-19T14:55:59.369Z,18.13
2023-01-19T14:58:35.479Z,11.50
2023-01-19T15:01:11.247Z,12.63
2023-01-19T15:03:45.420Z,15.13
2023-01-19T15:06:20.897Z,18.63
2023-01-19T15:08:53.994Z,22.40
2023-01-19T15:11:35.601Z,23.38
2023-01-19T15:14:12.199Z,13.13
2023-01-19T15:16:44.476Z,14.93
2023-01-19T15:19:17.765Z,23.55
2023-01-19T15:21:49.835Z,19.05
2023-01-19T15:24:21.992Z,12.20
2023-01-19T15:27:01.688Z,13.45
2023-01-19T15:29:34.239Z,8.02
2023-01-19T15:32:13.194Z,11.45
2023-01-19T15:34:47.850Z,7.30
2023-01-19T15:37:20.117Z,8.07
2023-01-19T15:39:52.489Z,5.93
2023-01-19T15:42:24.520Z,14.48
2023-01-19T15:44:56.597Z,10.40
2023-01-19T15:47:28.562Z,8.18
2023-01-19T15:50:00.632Z,11.13
2023-01-19T15:52:32.703Z,5.57
2023-01-19T15:55:05.290Z,10.32
2023-01-19T15:57:37.318Z,10.52
2023-01-19T16:00:14.955Z,7.55
2023-01-19T16:02:47.162Z,8.27
2023-01-19T16:05:19.611Z,6.70
2023-01-19T16:07:51.742Z,12.10
2023-01-19T16:10:23.834Z,10.55
2023-01-19T16:12:55.782Z,9.93
2023-01-19T16:15:28.968Z,15.40
2023-01-19T16:18:01.065Z,10.00
2023-01-19T16:20:33.092Z,13.07
2023-01-19T16:23:21.100Z,12.73
2023-01-19T16:25:59.029Z,11.93
2023-01-19T16:28:31.988Z,7.93
2023-01-19T16:31:04.901Z,15.93
2023-01-19T16:33:36.908Z,15.90
2023-01-19T16:36:30.993Z,9.57
2023-01-19T16:39:10.783Z,12.07
2023-01-19T16:41:45.087Z,10.45
2023-01-19T16:44:17.769Z,17.63
2023-01-19T16:46:52.636Z,11.35
2023-01-19T16:49:28.531Z,12.75
2023-01-19T16:52:01.332Z,12.57
2023-01-19T16:54:33.439Z,13.65
2023-01-19T16:57:05.479Z,19.23
2023-01-19T16:59:40.348Z,18.73
2023-01-19T17:02:12.607Z,20.48
2023-01-19T17:04:44.654Z,19.08
2023-01-19T17:07:18.998Z,10.73
2023-01-19T17:09:51.313Z,13.38
2023-01-19T17:12:23.411Z,11.88
2023-01-19T17:14:55.486Z,9.70
2023-01-19T17:17:27.734Z,17.60
2023-01-19T17:20:00.358Z,14.43
2023-01-19T17:22:32.455Z,7.50
2023-01-19T17:25:04.975Z,9.55
2023-01-19T17:27:37.095Z,11.65
2023-01-19T17:30:10.535Z,16.33
2023-01-19T17:32:42.770Z,7.47
2023-01-19T17:35:14.799Z,11.30
2023-01-19T17:37:46.807Z,16.75
2023-01-19T17:40:18.843Z,23.77
2023-01-19T17:42:50.929Z,17.00
2023-01-19T17:45:22.910Z,23.73
2023-01-19T17:47:57.879Z,19.50
2023-01-19T17:50:32.220Z,32.83
2023-01-19T17:53:04.360Z,13.43
2023-01-19T17:55:36.694Z,16.88
2023-01-19T17:58:08.669Z,19.67
2023-01-19T18:00:41.388Z,14.10
2023-01-19T18:03:13.451Z,17.33
2023-01-19T18:05:54.244Z,22.55
2023-01-19T18:08:26.308Z,14.18
2023-01-19T18:11:00.494Z,20.02
2023-01-19T18:13:32.805Z,13.85
2023-01-19T18:16:08.992Z,12.27
2023-01-19T18:18:41.431Z,17.17
2023-01-19T18:21:15.464Z,14.98
2023-01-19T18:23:49.303Z,13.02
2023-01-19T18:26:23.361Z,14.70
2023-01-19T18:29:00.288Z,10.48
2023-01-19T18:31:32.691Z,20.90
2023-01-19T18:34:05.045Z,10.52
2023-01-19T18:36:37.525Z,13.07
2023-01-19T18:39:10.335Z,16.05
2023-01-19T18:41:42.869Z,11.45
2023-01-19T18:44:15.584Z,23.83
2023-01-19T18:46:48.433Z,33.45
2023-01-19T18:49:25.829Z,19.95
2023-01-19T18:51:57.815Z,11.98
2023-01-19T18:54:29.840Z,17.50
2023-01-19T18:57:01.802Z,18.05
2023-01-19T18:59:34.036Z,20.38
2023-01-19T19:02:08.251Z,12.20
2023-01-19T19:04:41.465Z,17.42
2023-01-19T19:07:13.640Z,14.80
2023-01-19T19:09:45.595Z,15.75
2023-01-19T19:12:17.648Z,17.02
2023-01-19T19:14:50.242Z,10.02
2023-01-19T19:17:22.219Z,19.10
2023-01-19T19:19:54.246Z,14.13
2023-01-19T19:22:29.901Z,10.30
2023-01-19T19:25:01.958Z,21.25
2023-01-19T19:27:33.993Z,15.95
2023-01-19T19:30:08.663Z,19.95
2023-01-19T19:32:40.650Z,21.60
2023-01-19T19:35:12.687Z,17.15
2023-01-19T19:37:44.703Z,22.40
2023-01-19T19:40:17.849Z,17.05
2023-01-19T19:42:49.832Z,20.33
2023-01-19T19:45:21.866Z,12.05
2023-01-19T19:47:59.091Z,12.25
2023-01-19T19:50:31.472Z,18.30
2023-01-19T19:53:03.673Z,14.48
2023-01-19T19:55:35.707Z,21.70
2023-01-19T19:58:08.780Z,25.63
2023-01-19T20:00:42.841Z,18.75
2023-01-19T20:03:14.814Z,13.38
2023-01-19T20:05:47.771Z,23.73
2023-01-19T20:08:19.817Z,14.05
2023-01-19T20:10:51.800Z,26.20
2023-01-19T20:13:23.804Z,24.63
2023-01-19T20:15:55.823Z,23.35
2023-01-19T20:18:27.858Z,26.20
2023-01-19T20:21:00.548Z,34.55
2023-01-19T20:23:33.721Z,29.05
2023-01-19T20:26:08.159Z,20.75
2023-01-19T20:28:40.330Z,15.07
2023-01-19T20:31:19.578Z,19.58
2023-01-19T20:33:54.119Z,29.87
2023-01-19T20:36:26.227Z,53.40
2023-01-19T20:38:58.898Z,17.95
2023-01-19T20:41:31.060Z,34.47
2023-01-19T20:44:03.091Z,23.75
2023-01-19T20:46:35.104Z,42.67
2023-01-19T20:49:07.526Z,27.48
2023-01-19T20:51:43.493Z,27.40
2023-01-19T20:54:19.210Z,29.05
2023-01-19T20:56:51.206Z,19.90
2023-01-19T20:59:24.038Z,35.72
2023-01-19T21:01:56.198Z,27.15
2023-01-19T21:04:28.359Z,22.27
2023-01-19T21:07:01.032Z,19.63
2023-01-19T21:09:33.027Z,16.42
2023-01-19T21:12:08.029Z,13.68
2023-01-19T21:14:42.114Z,12.07
2023-01-19T21:17:17.721Z,10.68
2023-01-19T21:19:49.746Z,12.27
2023-01-19T21:22:21.796Z,14.40
2023-01-19T21:24:53.786Z,9.95
2023-01-19T21:27:25.914Z,13.30
2023-01-19T21:30:02.350Z,11.25
2023-01-19T21:32:34.429Z,16.17
2023-01-19T21:35:07.087Z,9.38
2023-01-19T21:37:39.119Z,15.55
2023-01-19T21:40:12.408Z,9.82
2023-01-19T21:42:44.379Z,12.13
2023-01-19T21:45:19.510Z,11.65
2023-01-19T21:47:51.630Z,11.02
2023-01-19T21:50:23.796Z,19.02
2023-01-19T21:52:55.900Z,15.60
2023-01-19T21:55:28.253Z,14.85
2023-01-19T21:58:00.329Z,12.98
2023-01-19T22:00:32.483Z,21.10
2023-01-19T22:03:05.027Z,15.57
2023-01-19T22:05:37.938Z,17.27
2023-01-19T22:08:10.010Z,15.45
2023-01-19T22:10:42.050Z,13.70
2023-01-19T22:13:14.233Z,22.02
2023-01-19T22:15:46.207Z,24.00
2023-01-19T22:18:18.399Z,18.58
2023-01-19T22:20:50.373Z,16.30
2023-01-19T22:23:22.468Z,15.60
2023-01-19T22:25:54.460Z,19.85
2023-01-19T22:28:26.478Z,21.45
2023-01-19T22:31:13.392Z,23.98
2023-01-19T22:33:45.753Z,21.08
2023-01-19T22:36:23.079Z,23.20
2023-01-19T22:39:06.191Z,27.17
2023-01-19T22:41:44.963Z,32.10
2023-01-19T22:44:21.210Z,31.20
2023-01-19T22:46:56.089Z,36.85
2023-01-19T22:49:28.375Z,32.70
2023-01-19T22:52:00.555Z,38.72
2023-01-19T22:54:32.748Z,47.10
2023-01-19T22:57:06.982Z,36.22
2023-01-19T22:59:43.847Z,37.45
2023-01-19T23:02:16.215Z,45.13
2023-01-19T23:04:48.221Z,48.85
2023-01-19T23:07:20.485Z,42.30
2023-01-19T23:09:52.440Z,48.30
2023-01-19T23:12:24.836Z,48.63
2023-01-19T23:14:56.816Z,48.88
2023-01-19T23:17:28.811Z,70.35
2023-01-19T23:20:00.867Z,53.22
2023-01-19T23:22:32.857Z,48.90
2023-01-19T23:25:11.218Z,51.25
2023-01-19T23:27:43.383Z,51.47
2023-01-19T23:30:15.866Z,47.95
2023-01-19T23:32:49.337Z,50.35
2023-01-19T23:35:21.380Z,56.50
2023-01-19T23:37:53.346Z,56.53
2023-01-19T23:40:25.433Z,50.65
2023-01-19T23:42:57.619Z,54.42
2023-01-19T23:45:33.745Z,59.30
2023-01-19T23:48:06.221Z,59.75
2023-01-19T23:50:40.947Z,55.10
2023-01-19T23:53:13.250Z,48.15
2023-01-19T23:55:45.264Z,57.38
2023-01-19T23:58:17.247Z,72.60
